チューリッヒ の空港の天気 - METARとTAF

チューリヒ国際空港 ( LSZH / ZRH ) - スイス チューリッヒ
飛行場実況気象(Metar)
観測時間06/18 01:50 CEST (06/17 23:50 UTC)
風向・風速不定 1m/s
視程10km以上
天気現象
なし
気温15℃
湿度94%
気圧1017hPa
METARLSZH 172350Z VRB01KT CAVOK 15/14 Q1017 NOSIG
過去の天気等 Google飛行場航空写真 Wunderground天気予報

過去48時間のMETAR

飛行場予報(TAF)
発表時間: 6/18 01:25 CEST (6/17 23:25 UTC)
予報対象時間: 18日2時 CEST ~ 19日8時 CEST
風向・風速不定 2m/s
視程10km以上
なし
18日5時 CEST から 確率 40% で
視程4000m
天気現象地霧
なし
18日11時 CEST ~ 18日14時 CEST に徐々に
視程10km以上
少しの雲 雲底高度 2130m
18日15時 CEST ~ 18日22時 CEST に一時的に
全天の4割程度の塔状積雲 雲底高度 1830m
18日18時 CEST ~ 18日21時 CEST に 確率 30% で一時的に
風向・風速南南西 7m/s 瞬間風速 13m/s
天気現象雷雨
全天の4割程度の積乱雲 雲底高度 1830m
18日22時 CEST ~ 19日1時 CEST に徐々に
視程10km以上
なし
TAF LSZH 172325Z 1800/1906 VRB03KT CAVOK TX29/1815Z TN12/1804Z TN13/1904Z
PROB40 1803/1806 4000 MIFG NSC
BECMG 1809/1812 9999 FEW070
TEMPO 1813/1820 SCT060TCU
PROB30 TEMPO 1816/1819 21013G26KT TSRA SCT060CB
BECMG 1820/1823 CAVOK